sensor_id;sensor_type;location;lat;lon;timestamp;temperature;humidity
33741;DHT22;20065;48.380;10.892;2023-02-12T00:01:11;5.60;99.90
33741;DHT22;20065;48.380;10.892;2023-02-12T00:03:59;5.60;99.90
33741;DHT22;20065;48.380;10.892;2023-02-12T00:06:46;5.60;99.90
33741;DHT22;20065;48.380;10.892;2023-02-12T00:09:32;5.60;99.90
33741;DHT22;20065;48.380;10.892;2023-02-12T00:12:19;5.60;99.90
33741;DHT22;20065;48.380;10.892;2023-02-12T00:15:06;5.60;99.90
33741;DHT22;20065;48.380;10.892;2023-02-12T00:17:52;5.60;99.90
33741;DHT22;20065;48.380;10.892;2023-02-12T00:20:38;5.60;99.90
33741;DHT22;20065;48.380;10.892;2023-02-12T00:23:24;5.60;99.90
33741;DHT22;20065;48.380;10.892;2023-02-12T00:26:14;5.60;99.90
33741;DHT22;20065;48.380;10.892;2023-02-12T00:29:05;5.60;99.90
33741;DHT22;20065;48.380;10.892;2023-02-12T00:31:51;5.60;99.90
33741;DHT22;20065;48.380;10.892;2023-02-12T00:34:38;5.60;99.90
33741;DHT22;20065;48.380;10.892;2023-02-12T00:37:24;5.50;99.90
33741;DHT22;20065;48.380;10.892;2023-02-12T00:40:13;5.50;99.90
33741;DHT22;20065;48.380;10.892;2023-02-12T00:42:59;5.50;99.90
33741;DHT22;20065;48.380;10.892;2023-02-12T00:45:46;5.60;99.90
33741;DHT22;20065;48.380;10.892;2023-02-12T00:48:33;5.60;99.90
33741;DHT22;20065;48.380;10.892;2023-02-12T00:51:19;5.60;99.90
33741;DHT22;20065;48.380;10.892;2023-02-12T00:54:06;5.60;99.90
33741;DHT22;20065;48.380;10.892;2023-02-12T00:56:52;5.70;99.90
33741;DHT22;20065;48.380;10.892;2023-02-12T00:59:43;5.60;99.90
33741;DHT22;20065;48.380;10.892;2023-02-12T01:02:29;5.60;99.90
33741;DHT22;20065;48.380;10.892;2023-02-12T01:05:16;5.50;99.90
33741;DHT22;20065;48.380;10.892;2023-02-12T01:08:06;5.40;99.90
33741;DHT22;20065;48.380;10.892;2023-02-12T01:10:55;5.50;99.90
33741;DHT22;20065;48.380;10.892;2023-02-12T01:13:42;5.40;99.90
33741;DHT22;20065;48.380;10.892;2023-02-12T01:16:31;5.30;99.90
33741;DHT22;20065;48.380;10.892;2023-02-12T01:19:19;5.20;99.90
33741;DHT22;20065;48.380;10.892;2023-02-12T01:22:08;5.30;99.90
33741;DHT22;20065;48.380;10.892;2023-02-12T01:24:54;5.40;99.90
33741;DHT22;20065;48.380;10.892;2023-02-12T01:27:40;5.40;99.90
33741;DHT22;20065;48.380;10.892;2023-02-12T01:30:26;5.40;99.90
33741;DHT22;20065;48.380;10.892;2023-02-12T01:33:12;5.40;99.90
33741;DHT22;20065;48.380;10.892;2023-02-12T01:35:59;5.50;99.90
33741;DHT22;20065;48.380;10.892;2023-02-12T01:38:45;5.40;99.90
33741;DHT22;20065;48.380;10.892;2023-02-12T01:41:36;5.40;99.90
33741;DHT22;20065;48.380;10.892;2023-02-12T01:44:28;5.50;99.90
33741;DHT22;20065;48.380;10.892;2023-02-12T01:47:16;5.40;99.90
33741;DHT22;20065;48.380;10.892;2023-02-12T01:50:03;5.40;99.90
33741;DHT22;20065;48.380;10.892;2023-02-12T01:52:54;5.40;99.90
33741;DHT22;20065;48.380;10.892;2023-02-12T01:55:41;5.40;99.90
33741;DHT22;20065;48.380;10.892;2023-02-12T01:58:31;5.30;99.90
33741;DHT22;20065;48.380;10.892;2023-02-12T02:01:26;5.30;99.90
33741;DHT22;20065;48.380;10.892;2023-02-12T02:04:18;5.20;99.90
33741;DHT22;20065;48.380;10.892;2023-02-12T02:07:05;5.20;99.90
33741;DHT22;20065;48.380;10.892;2023-02-12T02:09:53;5.30;99.90
33741;DHT22;20065;48.380;10.892;2023-02-12T02:12:40;5.30;99.90
33741;DHT22;20065;48.380;10.892;2023-02-12T02:15:48;5.20;99.90
33741;DHT22;20065;48.380;10.892;2023-02-12T02:18:47;5.10;99.90
33741;DHT22;20065;48.380;10.892;2023-02-12T02:25:14;5.10;99.90
33741;DHT22;20065;48.380;10.892;2023-02-12T02:31:13;5.00;99.90
33741;DHT22;20065;48.380;10.892;2023-02-12T02:42:58;4.80;99.90
33741;DHT22;20065;48.380;10.892;2023-02-12T02:45:50;4.80;99.90
33741;DHT22;20065;48.380;10.892;2023-02-12T02:48:45;4.80;99.90
33741;DHT22;20065;48.380;10.892;2023-02-12T02:51:39;4.80;99.90
33741;DHT22;20065;48.380;10.892;2023-02-12T02:54:32;4.80;99.90
33741;DHT22;20065;48.380;10.892;2023-02-12T02:57:28;4.50;99.90
33741;DHT22;20065;48.380;10.892;2023-02-12T03:00:26;4.40;99.90
33741;DHT22;20065;48.380;10.892;2023-02-12T03:06:24;4.40;99.90
33741;DHT22;20065;48.380;10.892;2023-02-12T03:09:22;4.50;99.90
33741;DHT22;20065;48.380;10.892;2023-02-12T03:12:16;4.50;99.90
33741;DHT22;20065;48.380;10.892;2023-02-12T03:15:13;4.60;99.90
33741;DHT22;20065;48.380;10.892;2023-02-12T03:18:03;4.70;99.90
33741;DHT22;20065;48.380;10.892;2023-02-12T03:20:58;4.70;99.90
33741;DHT22;20065;48.380;10.892;2023-02-12T03:27:31;4.60;99.90
33741;DHT22;20065;48.380;10.892;2023-02-12T03:30:18;4.70;99.90
33741;DHT22;20065;48.380;10.892;2023-02-12T03:42:57;4.80;99.90
33741;DHT22;20065;48.380;10.892;2023-02-12T03:49:19;4.70;99.90
33741;DHT22;20065;48.380;10.892;2023-02-12T03:52:09;4.50;99.90
33741;DHT22;20065;48.380;10.892;2023-02-12T03:54:55;4.40;99.90
33741;DHT22;20065;48.380;10.892;2023-02-12T03:57:59;4.30;99.90
33741;DHT22;20065;48.380;10.892;2023-02-12T04:00:46;4.10;99.90
33741;DHT22;20065;48.380;10.892;2023-02-12T04:03:33;4.10;99.90
33741;DHT22;20065;48.380;10.892;2023-02-12T04:06:23;4.20;99.90
33741;DHT22;20065;48.380;10.892;2023-02-12T04:09:14;4.20;99.90
33741;DHT22;20065;48.380;10.892;2023-02-12T04:18:04;4.30;99.90
33741;DHT22;20065;48.380;10.892;2023-02-12T04:21:00;4.40;99.90
33741;DHT22;20065;48.380;10.892;2023-02-12T04:24:10;4.60;99.90
33741;DHT22;20065;48.380;10.892;2023-02-12T04:27:56;4.70;99.90
33741;DHT22;20065;48.380;10.892;2023-02-12T04:30:39;4.70;99.90
33741;DHT22;20065;48.380;10.892;2023-02-12T04:33:33;4.80;99.90
33741;DHT22;20065;48.380;10.892;2023-02-12T04:36:24;4.80;99.90
33741;DHT22;20065;48.380;10.892;2023-02-12T04:39:16;4.80;99.90
33741;DHT22;20065;48.380;10.892;2023-02-12T04:42:05;4.80;99.90
33741;DHT22;20065;48.380;10.892;2023-02-12T04:44:52;4.80;99.90
33741;DHT22;20065;48.380;10.892;2023-02-12T04:47:38;4.80;99.90
33741;DHT22;20065;48.380;10.892;2023-02-12T04:50:25;4.80;99.90
33741;DHT22;20065;48.380;10.892;2023-02-12T04:53:11;4.60;99.90
33741;DHT22;20065;48.380;10.892;2023-02-12T04:55:57;4.40;99.90
33741;DHT22;20065;48.380;10.892;2023-02-12T04:58:43;4.30;99.90
33741;DHT22;20065;48.380;10.892;2023-02-12T05:01:32;4.30;99.90
33741;DHT22;20065;48.380;10.892;2023-02-12T05:04:18;4.20;99.90
33741;DHT22;20065;48.380;10.892;2023-02-12T05:07:05;4.20;99.90
33741;DHT22;20065;48.380;10.892;2023-02-12T05:09:51;4.20;99.90
33741;DHT22;20065;48.380;10.892;2023-02-12T05:12:37;4.30;99.90
33741;DHT22;20065;48.380;10.892;2023-02-12T05:15:23;4.40;99.90
33741;DHT22;20065;48.380;10.892;2023-02-12T05:18:09;4.40;99.90
33741;DHT22;20065;48.380;10.892;2023-02-12T05:21:01;4.50;99.90
33741;DHT22;20065;48.380;10.892;2023-02-12T05:23:47;4.50;99.90
33741;DHT22;20065;48.380;10.892;2023-02-12T05:26:34;4.60;99.90
33741;DHT22;20065;48.380;10.892;2023-02-12T05:29:20;4.60;99.90
33741;DHT22;20065;48.380;10.892;2023-02-12T05:32:06;4.50;99.90
33741;DHT22;20065;48.380;10.892;2023-02-12T05:34:53;4.50;99.90
33741;DHT22;20065;48.380;10.892;2023-02-12T05:37:39;4.50;99.90
33741;DHT22;20065;48.380;10.892;2023-02-12T05:40:25;4.50;99.90
33741;DHT22;20065;48.380;10.892;2023-02-12T05:43:12;4.60;99.90
33741;DHT22;20065;48.380;10.892;2023-02-12T05:46:00;4.60;99.90
33741;DHT22;20065;48.380;10.892;2023-02-12T05:48:47;4.60;99.90
33741;DHT22;20065;48.380;10.892;2023-02-12T05:51:33;4.60;99.90
33741;DHT22;20065;48.380;10.892;2023-02-12T05:54:19;4.60;99.90
33741;DHT22;20065;48.380;10.892;2023-02-12T05:57:06;4.60;99.90
33741;DHT22;20065;48.380;10.892;2023-02-12T05:59:52;4.60;99.90
33741;DHT22;20065;48.380;10.892;2023-02-12T06:02:38;4.60;99.90
33741;DHT22;20065;48.380;10.892;2023-02-12T06:05:24;4.70;99.90
33741;DHT22;20065;48.380;10.892;2023-02-12T06:08:10;4.70;99.90
33741;DHT22;20065;48.380;10.892;2023-02-12T06:11:01;4.80;99.90
33741;DHT22;20065;48.380;10.892;2023-02-12T06:13:48;4.80;99.90
33741;DHT22;20065;48.380;10.892;2023-02-12T06:16:35;4.80;99.90
33741;DHT22;20065;48.380;10.892;2023-02-12T06:19:21;4.80;99.90
33741;DHT22;20065;48.380;10.892;2023-02-12T06:22:07;4.70;99.90
33741;DHT22;20065;48.380;10.892;2023-02-12T06:24:53;4.70;99.90
33741;DHT22;20065;48.380;10.892;2023-02-12T06:27:40;4.70;99.90
33741;DHT22;20065;48.380;10.892;2023-02-12T06:30:26;4.60;99.90
33741;DHT22;20065;48.380;10.892;2023-02-12T06:33:12;4.70;99.90
33741;DHT22;20065;48.380;10.892;2023-02-12T06:36:02;4.70;99.90
33741;DHT22;20065;48.380;10.892;2023-02-12T06:38:49;4.70;99.90
33741;DHT22;20065;48.380;10.892;2023-02-12T06:41:36;4.70;99.90
33741;DHT22;20065;48.380;10.892;2023-02-12T06:44:22;4.70;99.90
33741;DHT22;20065;48.380;10.892;2023-02-12T06:47:08;4.70;99.90
33741;DHT22;20065;48.380;10.892;2023-02-12T06:49:54;4.70;99.90
33741;DHT22;20065;48.380;10.892;2023-02-12T06:52:40;4.80;99.90
33741;DHT22;20065;48.380;10.892;2023-02-12T06:55:27;4.80;99.90
33741;DHT22;20065;48.380;10.892;2023-02-12T06:58:13;4.90;99.90
33741;DHT22;20065;48.380;10.892;2023-02-12T07:01:10;4.90;99.90
33741;DHT22;20065;48.380;10.892;2023-02-12T07:04:02;5.00;99.90
33741;DHT22;20065;48.380;10.892;2023-02-12T07:06:48;5.00;99.90
33741;DHT22;20065;48.380;10.892;2023-02-12T07:09:34;5.00;99.90
33741;DHT22;20065;48.380;10.892;2023-02-12T07:12:20;5.00;99.90
33741;DHT22;20065;48.380;10.892;2023-02-12T07:15:06;4.80;99.90
33741;DHT22;20065;48.380;10.892;2023-02-12T07:17:53;4.70;99.90
33741;DHT22;20065;48.380;10.892;2023-02-12T07:20:39;4.80;99.90
33741;DHT22;20065;48.380;10.892;2023-02-12T07:23:25;4.90;99.90
33741;DHT22;20065;48.380;10.892;2023-02-12T07:26:12;5.00;99.90
33741;DHT22;20065;48.380;10.892;2023-02-12T07:28:58;5.10;99.90
33741;DHT22;20065;48.380;10.892;2023-02-12T07:31:45;5.00;99.90
33741;DHT22;20065;48.380;10.892;2023-02-12T07:34:31;4.90;99.90
33741;DHT22;20065;48.380;10.892;2023-02-12T07:37:17;5.00;99.90
33741;DHT22;20065;48.380;10.892;2023-02-12T07:40:08;5.10;99.90
33741;DHT22;20065;48.380;10.892;2023-02-12T07:42:55;5.20;99.90
33741;DHT22;20065;48.380;10.892;2023-02-12T07:45:41;5.30;99.90
33741;DHT22;20065;48.380;10.892;2023-02-12T07:48:27;5.30;99.90
33741;DHT22;20065;48.380;10.892;2023-02-12T07:51:15;5.30;99.90
33741;DHT22;20065;48.380;10.892;2023-02-12T07:54:02;5.30;99.90
33741;DHT22;20065;48.380;10.892;2023-02-12T07:56:49;5.50;99.90
33741;DHT22;20065;48.380;10.892;2023-02-12T07:59:35;5.60;99.90
33741;DHT22;20065;48.380;10.892;2023-02-12T08:02:22;5.30;99.90
33741;DHT22;20065;48.380;10.892;2023-02-12T08:05:10;5.40;99.90
33741;DHT22;20065;48.380;10.892;2023-02-12T08:07:56;5.50;99.90
33741;DHT22;20065;48.380;10.892;2023-02-12T08:10:42;5.60;99.90
33741;DHT22;20065;48.380;10.892;2023-02-12T08:13:28;5.70;99.90
33741;DHT22;20065;48.380;10.892;2023-02-12T08:16:17;5.40;99.90
33741;DHT22;20065;48.380;10.892;2023-02-12T08:19:10;5.30;99.90
33741;DHT22;20065;48.380;10.892;2023-02-12T08:21:56;5.40;99.90
33741;DHT22;20065;48.380;10.892;2023-02-12T08:24:43;5.60;99.90
33741;DHT22;20065;48.380;10.892;2023-02-12T08:27:30;5.90;99.90
33741;DHT22;20065;48.380;10.892;2023-02-12T08:30:16;5.90;99.90
33741;DHT22;20065;48.380;10.892;2023-02-12T08:33:03;6.00;99.90
33741;DHT22;20065;48.380;10.892;2023-02-12T08:35:49;6.20;99.90
33741;DHT22;20065;48.380;10.892;2023-02-12T08:38:36;6.40;99.90
33741;DHT22;20065;48.380;10.892;2023-02-12T08:41:25;6.50;99.90
33741;DHT22;20065;48.380;10.892;2023-02-12T08:44:12;6.60;99.90
33741;DHT22;20065;48.380;10.892;2023-02-12T08:46:58;6.60;99.90
33741;DHT22;20065;48.380;10.892;2023-02-12T08:49:44;6.70;99.90
33741;DHT22;20065;48.380;10.892;2023-02-12T08:52:31;6.80;99.90
33741;DHT22;20065;48.380;10.892;2023-02-12T08:55:19;6.80;99.90
33741;DHT22;20065;48.380;10.892;2023-02-12T08:58:05;6.80;99.90
33741;DHT22;20065;48.380;10.892;2023-02-12T09:00:51;6.80;99.90
33741;DHT22;20065;48.380;10.892;2023-02-12T09:03:37;6.80;99.90
33741;DHT22;20065;48.380;10.892;2023-02-12T09:06:24;6.70;99.90
33741;DHT22;20065;48.380;10.892;2023-02-12T09:09:11;6.60;99.90
33741;DHT22;20065;48.380;10.892;2023-02-12T09:11:57;6.70;99.90
33741;DHT22;20065;48.380;10.892;2023-02-12T09:14:43;6.80;99.90
33741;DHT22;20065;48.380;10.892;2023-02-12T09:17:29;6.90;99.90
33741;DHT22;20065;48.380;10.892;2023-02-12T09:20:15;6.80;99.90
33741;DHT22;20065;48.380;10.892;2023-02-12T09:23:01;7.00;99.90
33741;DHT22;20065;48.380;10.892;2023-02-12T09:25:48;7.00;99.90
33741;DHT22;20065;48.380;10.892;2023-02-12T09:28:35;7.20;99.90
33741;DHT22;20065;48.380;10.892;2023-02-12T09:31:31;7.20;99.90
33741;DHT22;20065;48.380;10.892;2023-02-12T09:34:17;7.30;99.90
33741;DHT22;20065;48.380;10.892;2023-02-12T09:37:03;7.40;99.90
33741;DHT22;20065;48.380;10.892;2023-02-12T09:39:50;7.40;99.90
33741;DHT22;20065;48.380;10.892;2023-02-12T09:49:32;7.70;99.90
33741;DHT22;20065;48.380;10.892;2023-02-12T09:52:27;7.70;99.90
33741;DHT22;20065;48.380;10.892;2023-02-12T09:55:15;7.70;99.90
33741;DHT22;20065;48.380;10.892;2023-02-12T09:58:11;7.80;99.90
33741;DHT22;20065;48.380;10.892;2023-02-12T10:01:00;7.90;99.90
33741;DHT22;20065;48.380;10.892;2023-02-12T10:03:50;8.00;99.90
33741;DHT22;20065;48.380;10.892;2023-02-12T10:06:44;8.00;99.90
33741;DHT22;20065;48.380;10.892;2023-02-12T10:10:02;8.00;99.90
33741;DHT22;20065;48.380;10.892;2023-02-12T10:13:10;8.10;99.90
33741;DHT22;20065;48.380;10.892;2023-02-12T10:16:42;8.20;99.90
33741;DHT22;20065;48.380;10.892;2023-02-12T10:23:07;8.10;99.90
33741;DHT22;20065;48.380;10.892;2023-02-12T10:25:58;8.10;99.90
33741;DHT22;20065;48.380;10.892;2023-02-12T10:28:46;8.20;99.90
33741;DHT22;20065;48.380;10.892;2023-02-12T10:31:37;8.30;99.90
33741;DHT22;20065;48.380;10.892;2023-02-12T10:34:31;8.50;99.90
33741;DHT22;20065;48.380;10.892;2023-02-12T10:37:54;8.50;99.90
33741;DHT22;20065;48.380;10.892;2023-02-12T10:40:39;8.60;99.90
33741;DHT22;20065;48.380;10.892;2023-02-12T10:43:28;8.50;99.90
33741;DHT22;20065;48.380;10.892;2023-02-12T10:46:16;8.50;99.90
33741;DHT22;20065;48.380;10.892;2023-02-12T10:49:02;8.40;99.90
33741;DHT22;20065;48.380;10.892;2023-02-12T10:52:08;8.30;99.90
33741;DHT22;20065;48.380;10.892;2023-02-12T10:54:56;8.20;99.90
33741;DHT22;20065;48.380;10.892;2023-02-12T10:57:42;8.10;99.90
33741;DHT22;20065;48.380;10.892;2023-02-12T11:00:34;8.00;99.90
33741;DHT22;20065;48.380;10.892;2023-02-12T11:03:26;7.90;99.90
33741;DHT22;20065;48.380;10.892;2023-02-12T11:06:22;7.90;99.90
33741;DHT22;20065;48.380;10.892;2023-02-12T11:09:29;8.10;99.90
33741;DHT22;20065;48.380;10.892;2023-02-12T11:12:31;8.10;99.90
33741;DHT22;20065;48.380;10.892;2023-02-12T11:15:23;8.00;99.90
33741;DHT22;20065;48.380;10.892;2023-02-12T11:18:23;7.90;99.90
33741;DHT22;20065;48.380;10.892;2023-02-12T11:21:11;7.70;99.90
33741;DHT22;20065;48.380;10.892;2023-02-12T11:24:35;7.50;99.90
33741;DHT22;20065;48.380;10.892;2023-02-12T11:27:25;7.60;99.90
33741;DHT22;20065;48.380;10.892;2023-02-12T11:30:20;7.70;99.90
33741;DHT22;20065;48.380;10.892;2023-02-12T11:36:25;7.70;99.90
33741;DHT22;20065;48.380;10.892;2023-02-12T11:39:34;7.70;99.90
33741;DHT22;20065;48.380;10.892;2023-02-12T11:42:23;7.70;99.90
33741;DHT22;20065;48.380;10.892;2023-02-12T11:45:16;7.70;99.90
33741;DHT22;20065;48.380;10.892;2023-02-12T11:51:08;8.60;99.90
33741;DHT22;20065;48.380;10.892;2023-02-12T11:53:58;8.90;99.90
33741;DHT22;20065;48.380;10.892;2023-02-12T11:56:45;9.10;99.90
33741;DHT22;20065;48.380;10.892;2023-02-12T11:59:37;9.30;99.90
33741;DHT22;20065;48.380;10.892;2023-02-12T12:02:31;9.30;99.90
33741;DHT22;20065;48.380;10.892;2023-02-12T12:05:21;9.30;99.90
33741;DHT22;20065;48.380;10.892;2023-02-12T12:08:20;9.40;99.90
33741;DHT22;20065;48.380;10.892;2023-02-12T12:11:16;9.60;99.90
33741;DHT22;20065;48.380;10.892;2023-02-12T12:17:16;9.50;99.90
33741;DHT22;20065;48.380;10.892;2023-02-12T12:20:24;9.50;99.90
33741;DHT22;20065;48.380;10.892;2023-02-12T12:23:18;9.40;99.90
33741;DHT22;20065;48.380;10.892;2023-02-12T12:26:14;9.40;99.90
33741;DHT22;20065;48.380;10.892;2023-02-12T12:29:18;9.50;99.90
33741;DHT22;20065;48.380;10.892;2023-02-12T12:32:11;9.60;99.90
33741;DHT22;20065;48.380;10.892;2023-02-12T12:35:04;9.70;99.90
33741;DHT22;20065;48.380;10.892;2023-02-12T12:38:30;9.90;99.90
33741;DHT22;20065;48.380;10.892;2023-02-12T13:01:30;10.20;99.90
33741;DHT22;20065;48.380;10.892;2023-02-12T13:11:10;9.60;99.90
33741;DHT22;20065;48.380;10.892;2023-02-12T13:13:44;9.70;99.90
33741;DHT22;20065;48.380;10.892;2023-02-12T13:17:02;9.30;99.90
33741;DHT22;20065;48.380;10.892;2023-02-12T13:20:11;9.00;99.90
33741;DHT22;20065;48.380;10.892;2023-02-12T13:23:19;8.80;99.90
33741;DHT22;20065;48.380;10.892;2023-02-12T13:29:19;9.00;99.90
33741;DHT22;20065;48.380;10.892;2023-02-12T13:34:59;8.70;99.90
33741;DHT22;20065;48.380;10.892;2023-02-12T13:37:48;8.70;99.90
33741;DHT22;20065;48.380;10.892;2023-02-12T13:40:36;8.80;99.90
33741;DHT22;20065;48.380;10.892;2023-02-12T13:47:01;9.20;99.90
33741;DHT22;20065;48.380;10.892;2023-02-12T13:50:30;9.40;99.90
33741;DHT22;20065;48.380;10.892;2023-02-12T13:53:24;9.30;99.90
33741;DHT22;20065;48.380;10.892;2023-02-12T13:56:41;9.50;99.90
33741;DHT22;20065;48.380;10.892;2023-02-12T14:05:29;9.90;99.90
33741;DHT22;20065;48.380;10.892;2023-02-12T14:08:35;10.00;99.90
33741;DHT22;20065;48.380;10.892;2023-02-12T14:11:24;9.80;99.90
33741;DHT22;20065;48.380;10.892;2023-02-12T14:14:10;9.30;99.90
33741;DHT22;20065;48.380;10.892;2023-02-12T14:20:37;9.30;99.90
33741;DHT22;20065;48.380;10.892;2023-02-12T14:23:39;9.10;99.90
33741;DHT22;20065;48.380;10.892;2023-02-12T14:26:37;8.80;99.90
33741;DHT22;20065;48.380;10.892;2023-02-12T14:29:25;8.60;99.90
33741;DHT22;20065;48.380;10.892;2023-02-12T14:35:33;8.20;99.90
33741;DHT22;20065;48.380;10.892;2023-02-12T14:39:25;8.10;99.90
33741;DHT22;20065;48.380;10.892;2023-02-12T14:41:27;7.90;99.90
33741;DHT22;20065;48.380;10.892;2023-02-12T14:50:42;7.80;99.90
33741;DHT22;20065;48.380;10.892;2023-02-12T14:53:38;7.80;99.90
33741;DHT22;20065;48.380;10.892;2023-02-12T14:56:24;7.70;99.90
33741;DHT22;20065;48.380;10.892;2023-02-12T14:59:17;7.60;99.90
33741;DHT22;20065;48.380;10.892;2023-02-12T15:02:06;7.60;99.90
33741;DHT22;20065;48.380;10.892;2023-02-12T15:05:02;7.60;99.90
33741;DHT22;20065;48.380;10.892;2023-02-12T15:08:02;7.60;99.90
33741;DHT22;20065;48.380;10.892;2023-02-12T15:11:16;7.70;99.90
33741;DHT22;20065;48.380;10.892;2023-02-12T15:14:19;7.70;99.90
33741;DHT22;20065;48.380;10.892;2023-02-12T15:17:07;7.70;99.90
33741;DHT22;20065;48.380;10.892;2023-02-12T15:20:00;7.70;99.90
33741;DHT22;20065;48.380;10.892;2023-02-12T15:22:48;7.60;99.90
33741;DHT22;20065;48.380;10.892;2023-02-12T15:25:34;7.50;99.90
33741;DHT22;20065;48.380;10.892;2023-02-12T15:28:24;7.50;99.90
33741;DHT22;20065;48.380;10.892;2023-02-12T15:31:20;7.40;99.90
33741;DHT22;20065;48.380;10.892;2023-02-12T15:34:17;7.40;99.90
33741;DHT22;20065;48.380;10.892;2023-02-12T15:37:06;7.30;99.90
33741;DHT22;20065;48.380;10.892;2023-02-12T15:39:59;7.30;99.90
33741;DHT22;20065;48.380;10.892;2023-02-12T15:42:55;7.20;99.90
33741;DHT22;20065;48.380;10.892;2023-02-12T15:45:49;7.20;99.90
33741;DHT22;20065;48.380;10.892;2023-02-12T15:48:36;7.20;99.90
33741;DHT22;20065;48.380;10.892;2023-02-12T15:51:34;7.00;99.90
33741;DHT22;20065;48.380;10.892;2023-02-12T15:54:21;7.00;99.90
33741;DHT22;20065;48.380;10.892;2023-02-12T15:57:12;6.90;99.90
33741;DHT22;20065;48.380;10.892;2023-02-12T16:00:27;6.90;99.90
33741;DHT22;20065;48.380;10.892;2023-02-12T16:03:22;6.90;99.90
33741;DHT22;20065;48.380;10.892;2023-02-12T16:06:12;6.80;99.90
33741;DHT22;20065;48.380;10.892;2023-02-12T16:11:47;6.70;99.90
33741;DHT22;20065;48.380;10.892;2023-02-12T16:14:47;6.60;99.90
33741;DHT22;20065;48.380;10.892;2023-02-12T16:17:35;6.60;99.90
33741;DHT22;20065;48.380;10.892;2023-02-12T16:20:26;6.60;99.90
33741;DHT22;20065;48.380;10.892;2023-02-12T16:23:13;6.50;99.90
33741;DHT22;20065;48.380;10.892;2023-02-12T16:25:59;6.50;99.90
33741;DHT22;20065;48.380;10.892;2023-02-12T16:28:51;6.40;99.90
33741;DHT22;20065;48.380;10.892;2023-02-12T16:31:38;6.40;99.90
33741;DHT22;20065;48.380;10.892;2023-02-12T16:34:30;6.40;99.90
33741;DHT22;20065;48.380;10.892;2023-02-12T16:37:46;6.30;99.90
33741;DHT22;20065;48.380;10.892;2023-02-12T16:40:34;6.20;99.90
33741;DHT22;20065;48.380;10.892;2023-02-12T16:43:24;6.10;99.90
33741;DHT22;20065;48.380;10.892;2023-02-12T16:46:12;6.10;99.90
33741;DHT22;20065;48.380;10.892;2023-02-12T16:49:00;6.10;99.90
33741;DHT22;20065;48.380;10.892;2023-02-12T16:51:47;6.10;99.90
33741;DHT22;20065;48.380;10.892;2023-02-12T16:54:35;6.00;99.90
33741;DHT22;20065;48.380;10.892;2023-02-12T16:57:21;6.00;99.90
33741;DHT22;20065;48.380;10.892;2023-02-12T17:00:13;5.90;99.90
33741;DHT22;20065;48.380;10.892;2023-02-12T17:03:04;5.90;99.90
33741;DHT22;20065;48.380;10.892;2023-02-12T17:05:50;5.80;99.90
33741;DHT22;20065;48.380;10.892;2023-02-12T17:08:37;5.80;99.90
33741;DHT22;20065;48.380;10.892;2023-02-12T17:11:24;5.80;99.90
33741;DHT22;20065;48.380;10.892;2023-02-12T17:14:15;5.80;99.90
33741;DHT22;20065;48.380;10.892;2023-02-12T17:17:01;5.70;99.90
33741;DHT22;20065;48.380;10.892;2023-02-12T17:20:08;5.70;99.90
33741;DHT22;20065;48.380;10.892;2023-02-12T17:23:06;5.70;99.90
33741;DHT22;20065;48.380;10.892;2023-02-12T17:25:59;5.60;99.90
33741;DHT22;20065;48.380;10.892;2023-02-12T17:28:47;5.60;99.90
33741;DHT22;20065;48.380;10.892;2023-02-12T17:31:34;5.50;99.90
33741;DHT22;20065;48.380;10.892;2023-02-12T17:34:22;5.50;99.90
33741;DHT22;20065;48.380;10.892;2023-02-12T17:37:12;5.50;99.90
33741;DHT22;20065;48.380;10.892;2023-02-12T17:39:59;5.40;99.90
33741;DHT22;20065;48.380;10.892;2023-02-12T17:42:46;5.30;99.90
33741;DHT22;20065;48.380;10.892;2023-02-12T17:45:32;5.20;99.90
33741;DHT22;20065;48.380;10.892;2023-02-12T17:48:21;5.20;99.90
33741;DHT22;20065;48.380;10.892;2023-02-12T17:51:10;5.20;99.90
33741;DHT22;20065;48.380;10.892;2023-02-12T17:53:56;5.10;99.90
33741;DHT22;20065;48.380;10.892;2023-02-12T17:56:42;5.10;99.90
33741;DHT22;20065;48.380;10.892;2023-02-12T17:59:29;5.10;99.90
33741;DHT22;20065;48.380;10.892;2023-02-12T18:02:15;5.00;99.90
33741;DHT22;20065;48.380;10.892;2023-02-12T18:05:09;5.10;99.90
33741;DHT22;20065;48.380;10.892;2023-02-12T18:07:57;5.10;99.90
33741;DHT22;20065;48.380;10.892;2023-02-12T18:10:48;5.10;99.90
33741;DHT22;20065;48.380;10.892;2023-02-12T18:13:38;5.10;99.90
33741;DHT22;20065;48.380;10.892;2023-02-12T18:16:27;5.00;99.90
33741;DHT22;20065;48.380;10.892;2023-02-12T18:19:17;5.00;99.90
33741;DHT22;20065;48.380;10.892;2023-02-12T18:22:03;5.00;99.90
33741;DHT22;20065;48.380;10.892;2023-02-12T18:24:49;4.90;99.90
33741;DHT22;20065;48.380;10.892;2023-02-12T18:27:36;4.80;99.90
33741;DHT22;20065;48.380;10.892;2023-02-12T18:30:24;4.80;99.90
33741;DHT22;20065;48.380;10.892;2023-02-12T18:33:11;4.80;99.90
33741;DHT22;20065;48.380;10.892;2023-02-12T18:36:04;4.70;99.90
33741;DHT22;20065;48.380;10.892;2023-02-12T18:38:51;4.70;99.90
33741;DHT22;20065;48.380;10.892;2023-02-12T18:41:37;4.70;99.90
33741;DHT22;20065;48.380;10.892;2023-02-12T18:44:24;4.70;99.90
33741;DHT22;20065;48.380;10.892;2023-02-12T18:47:10;4.70;99.90
33741;DHT22;20065;48.380;10.892;2023-02-12T18:49:57;4.60;99.90
33741;DHT22;20065;48.380;10.892;2023-02-12T18:52:46;4.60;99.90
33741;DHT22;20065;48.380;10.892;2023-02-12T18:55:43;4.50;99.90
33741;DHT22;20065;48.380;10.892;2023-02-12T18:58:30;4.40;99.90
33741;DHT22;20065;48.380;10.892;2023-02-12T19:01:24;4.30;99.90
33741;DHT22;20065;48.380;10.892;2023-02-12T19:04:17;4.30;99.90
33741;DHT22;20065;48.380;10.892;2023-02-12T19:07:04;4.20;99.90
33741;DHT22;20065;48.380;10.892;2023-02-12T19:09:50;4.20;99.90
33741;DHT22;20065;48.380;10.892;2023-02-12T19:12:40;4.20;99.90
33741;DHT22;20065;48.380;10.892;2023-02-12T19:15:27;4.20;99.90
33741;DHT22;20065;48.380;10.892;2023-02-12T19:18:13;4.20;99.90
33741;DHT22;20065;48.380;10.892;2023-02-12T19:21:06;4.20;99.90
33741;DHT22;20065;48.380;10.892;2023-02-12T19:23:54;4.20;99.90
33741;DHT22;20065;48.380;10.892;2023-02-12T19:26:41;4.10;99.90
33741;DHT22;20065;48.380;10.892;2023-02-12T19:29:30;4.10;99.90
33741;DHT22;20065;48.380;10.892;2023-02-12T19:32:16;4.00;99.90
33741;DHT22;20065;48.380;10.892;2023-02-12T19:35:03;4.00;99.90
33741;DHT22;20065;48.380;10.892;2023-02-12T19:37:50;4.00;99.90
33741;DHT22;20065;48.380;10.892;2023-02-12T19:40:36;4.00;99.90
33741;DHT22;20065;48.380;10.892;2023-02-12T19:43:22;4.00;99.90
33741;DHT22;20065;48.380;10.892;2023-02-12T19:46:15;3.90;99.90
33741;DHT22;20065;48.380;10.892;2023-02-12T19:49:07;3.90;99.90
33741;DHT22;20065;48.380;10.892;2023-02-12T19:52:18;3.90;99.90
33741;DHT22;20065;48.380;10.892;2023-02-12T19:55:05;3.90;99.90
33741;DHT22;20065;48.380;10.892;2023-02-12T19:57:58;3.80;99.90